sensor_id;sensor_type;location;lat;lon;timestamp;P1;durP1;ratioP1;P2;durP2;ratioP2
55172;SDS011;41061;52.822;6.860;2023-02-18T00:01:16;31.58;;;6.95;;
55172;SDS011;41061;52.822;6.860;2023-02-18T00:03:43;32.05;;;8.05;;
55172;SDS011;41061;52.822;6.860;2023-02-18T00:06:10;36.65;;;8.48;;
55172;SDS011;41061;52.822;6.860;2023-02-18T00:08:37;29.75;;;6.53;;
55172;SDS011;41061;52.822;6.860;2023-02-18T00:11:06;31.27;;;6.95;;
55172;SDS011;41061;52.822;6.860;2023-02-18T00:13:33;31.25;;;6.03;;
55172;SDS011;41061;52.822;6.860;2023-02-18T00:16:00;30.83;;;7.15;;
55172;SDS011;41061;52.822;6.860;2023-02-18T00:18:26;25.98;;;6.10;;
55172;SDS011;41061;52.822;6.860;2023-02-18T00:20:52;26.92;;;6.22;;
55172;SDS011;41061;52.822;6.860;2023-02-18T00:23:18;32.83;;;7.15;;
55172;SDS011;41061;52.822;6.860;2023-02-18T00:25:44;32.53;;;8.05;;
55172;SDS011;41061;52.822;6.860;2023-02-18T00:28:10;17.67;;;3.67;;
55172;SDS011;41061;52.822;6.860;2023-02-18T00:30:40;30.70;;;6.13;;
55172;SDS011;41061;52.822;6.860;2023-02-18T00:33:06;29.70;;;6.03;;
55172;SDS011;41061;52.822;6.860;2023-02-18T00:35:32;17.77;;;4.20;;
55172;SDS011;41061;52.822;6.860;2023-02-18T00:37:58;37.92;;;7.80;;
55172;SDS011;41061;52.822;6.860;2023-02-18T00:40:24;30.15;;;6.88;;
55172;SDS011;41061;52.822;6.860;2023-02-18T00:42:50;27.05;;;5.07;;
55172;SDS011;41061;52.822;6.860;2023-02-18T00:45:16;32.38;;;8.13;;
55172;SDS011;41061;52.822;6.860;2023-02-18T00:47:43;52.08;;;11.98;;
55172;SDS011;41061;52.822;6.860;2023-02-18T00:50:09;30.30;;;7.70;;
55172;SDS011;41061;52.822;6.860;2023-02-18T00:52:35;43.45;;;10.75;;
55172;SDS011;41061;52.822;6.860;2023-02-18T00:55:01;60.42;;;13.90;;
55172;SDS011;41061;52.822;6.860;2023-02-18T00:57:27;57.55;;;13.32;;
55172;SDS011;41061;52.822;6.860;2023-02-18T00:59:53;29.05;;;6.68;;
55172;SDS011;41061;52.822;6.860;2023-02-18T01:02:19;51.22;;;12.63;;
55172;SDS011;41061;52.822;6.860;2023-02-18T01:04:45;47.60;;;11.63;;
55172;SDS011;41061;52.822;6.860;2023-02-18T01:07:12;39.83;;;8.85;;
55172;SDS011;41061;52.822;6.860;2023-02-18T01:09:38;45.00;;;10.18;;
55172;SDS011;41061;52.822;6.860;2023-02-18T01:12:04;38.00;;;8.02;;
55172;SDS011;41061;52.822;6.860;2023-02-18T01:14:30;36.30;;;9.63;;
55172;SDS011;41061;52.822;6.860;2023-02-18T01:16:57;45.65;;;10.43;;
55172;SDS011;41061;52.822;6.860;2023-02-18T01:19:23;29.30;;;7.65;;
55172;SDS011;41061;52.822;6.860;2023-02-18T01:21:49;40.83;;;11.43;;
55172;SDS011;41061;52.822;6.860;2023-02-18T01:24:15;26.55;;;6.60;;
55172;SDS011;41061;52.822;6.860;2023-02-18T01:26:41;37.90;;;10.32;;
55172;SDS011;41061;52.822;6.860;2023-02-18T01:29:07;37.35;;;10.30;;
55172;SDS011;41061;52.822;6.860;2023-02-18T01:31:33;28.30;;;7.38;;
55172;SDS011;41061;52.822;6.860;2023-02-18T01:33:59;28.98;;;8.48;;
55172;SDS011;41061;52.822;6.860;2023-02-18T01:36:25;34.97;;;9.23;;
55172;SDS011;41061;52.822;6.860;2023-02-18T01:38:51;34.97;;;11.13;;
55172;SDS011;41061;52.822;6.860;2023-02-18T01:41:18;35.50;;;8.73;;
55172;SDS011;41061;52.822;6.860;2023-02-18T01:43:44;37.88;;;9.27;;
55172;SDS011;41061;52.822;6.860;2023-02-18T01:46:12;28.92;;;8.52;;
55172;SDS011;41061;52.822;6.860;2023-02-18T01:48:40;34.47;;;10.93;;
55172;SDS011;41061;52.822;6.860;2023-02-18T01:53:39;32.45;;;9.70;;
55172;SDS011;41061;52.822;6.860;2023-02-18T01:56:07;31.33;;;7.93;;
55172;SDS011;41061;52.822;6.860;2023-02-18T01:58:35;33.80;;;9.25;;
55172;SDS011;41061;52.822;6.860;2023-02-18T02:01:03;31.88;;;8.40;;
55172;SDS011;41061;52.822;6.860;2023-02-18T02:03:29;26.10;;;8.27;;
55172;SDS011;41061;52.822;6.860;2023-02-18T02:05:55;31.02;;;11.10;;
55172;SDS011;41061;52.822;6.860;2023-02-18T02:08:21;26.52;;;9.75;;
55172;SDS011;41061;52.822;6.860;2023-02-18T02:10:57;23.85;;;9.10;;
55172;SDS011;41061;52.822;6.860;2023-02-18T02:13:33;31.23;;;10.10;;
55172;SDS011;41061;52.822;6.860;2023-02-18T02:23:50;31.13;;;9.50;;
55172;SDS011;41061;52.822;6.860;2023-02-18T02:34:27;28.98;;;9.75;;
55172;SDS011;41061;52.822;6.860;2023-02-18T02:42:44;30.23;;;9.10;;
55172;SDS011;41061;52.822;6.860;2023-02-18T02:47:53;27.90;;;9.00;;
55172;SDS011;41061;52.822;6.860;2023-02-18T02:50:26;24.50;;;8.85;;
55172;SDS011;41061;52.822;6.860;2023-02-18T02:52:58;19.25;;;8.82;;
55172;SDS011;41061;52.822;6.860;2023-02-18T02:55:24;25.25;;;8.77;;
55172;SDS011;41061;52.822;6.860;2023-02-18T02:57:51;23.33;;;8.15;;
55172;SDS011;41061;52.822;6.860;2023-02-18T03:00:19;20.30;;;7.82;;
55172;SDS011;41061;52.822;6.860;2023-02-18T03:05:37;22.38;;;8.25;;
55172;SDS011;41061;52.822;6.860;2023-02-18T03:13:14;22.10;;;8.23;;
55172;SDS011;41061;52.822;6.860;2023-02-18T03:18:20;24.98;;;8.40;;
55172;SDS011;41061;52.822;6.860;2023-02-18T03:23:41;32.60;;;12.00;;
55172;SDS011;41061;52.822;6.860;2023-02-18T03:26:09;28.42;;;9.65;;
55172;SDS011;41061;52.822;6.860;2023-02-18T03:28:36;23.77;;;9.73;;
55172;SDS011;41061;52.822;6.860;2023-02-18T03:31:07;28.23;;;10.90;;
55172;SDS011;41061;52.822;6.860;2023-02-18T03:33:45;27.00;;;11.07;;
55172;SDS011;41061;52.822;6.860;2023-02-18T03:36:13;29.92;;;11.88;;
55172;SDS011;41061;52.822;6.860;2023-02-18T03:38:41;31.20;;;13.05;;
55172;SDS011;41061;52.822;6.860;2023-02-18T03:41:08;33.63;;;14.48;;
55172;SDS011;41061;52.822;6.860;2023-02-18T03:43:35;32.83;;;13.95;;
55172;SDS011;41061;52.822;6.860;2023-02-18T03:46:01;47.45;;;16.73;;
55172;SDS011;41061;52.822;6.860;2023-02-18T03:48:28;35.53;;;14.85;;
55172;SDS011;41061;52.822;6.860;2023-02-18T03:50:54;41.65;;;15.68;;
55172;SDS011;41061;52.822;6.860;2023-02-18T03:53:20;41.60;;;17.92;;
55172;SDS011;41061;52.822;6.860;2023-02-18T03:55:46;40.33;;;17.23;;
55172;SDS011;41061;52.822;6.860;2023-02-18T03:58:12;44.15;;;17.75;;
55172;SDS011;41061;52.822;6.860;2023-02-18T04:00:38;38.92;;;18.23;;
55172;SDS011;41061;52.822;6.860;2023-02-18T04:03:04;38.70;;;19.00;;
55172;SDS011;41061;52.822;6.860;2023-02-18T04:05:30;43.58;;;19.55;;
55172;SDS011;41061;52.822;6.860;2023-02-18T04:07:56;40.67;;;19.98;;
55172;SDS011;41061;52.822;6.860;2023-02-18T04:10:22;46.85;;;20.90;;
55172;SDS011;41061;52.822;6.860;2023-02-18T04:12:48;42.75;;;20.20;;
55172;SDS011;41061;52.822;6.860;2023-02-18T04:15:15;51.00;;;21.23;;
55172;SDS011;41061;52.822;6.860;2023-02-18T04:17:41;46.05;;;22.33;;
55172;SDS011;41061;52.822;6.860;2023-02-18T04:20:07;50.50;;;22.70;;
55172;SDS011;41061;52.822;6.860;2023-02-18T04:22:33;51.75;;;24.35;;
55172;SDS011;41061;52.822;6.860;2023-02-18T04:24:59;49.40;;;23.35;;
55172;SDS011;41061;52.822;6.860;2023-02-18T04:27:25;46.33;;;23.05;;
55172;SDS011;41061;52.822;6.860;2023-02-18T04:29:51;53.92;;;23.33;;
55172;SDS011;41061;52.822;6.860;2023-02-18T04:32:17;51.85;;;24.20;;
55172;SDS011;41061;52.822;6.860;2023-02-18T04:34:44;51.95;;;24.75;;
55172;SDS011;41061;52.822;6.860;2023-02-18T04:37:10;52.22;;;25.77;;
55172;SDS011;41061;52.822;6.860;2023-02-18T04:39:36;58.45;;;27.17;;
55172;SDS011;41061;52.822;6.860;2023-02-18T04:42:02;53.15;;;26.02;;
55172;SDS011;41061;52.822;6.860;2023-02-18T04:44:33;52.70;;;25.65;;
55172;SDS011;41061;52.822;6.860;2023-02-18T04:47:00;58.25;;;26.58;;
55172;SDS011;41061;52.822;6.860;2023-02-18T04:49:26;53.38;;;26.52;;
55172;SDS011;41061;52.822;6.860;2023-02-18T04:51:52;48.17;;;26.33;;
55172;SDS011;41061;52.822;6.860;2023-02-18T04:54:18;51.88;;;26.17;;
55172;SDS011;41061;52.822;6.860;2023-02-18T04:56:44;55.38;;;28.13;;
55172;SDS011;41061;52.822;6.860;2023-02-18T04:59:10;61.22;;;28.35;;
55172;SDS011;41061;52.822;6.860;2023-02-18T05:01:36;58.22;;;28.02;;
55172;SDS011;41061;52.822;6.860;2023-02-18T05:04:02;54.30;;;28.73;;
55172;SDS011;41061;52.822;6.860;2023-02-18T05:06:28;61.33;;;29.75;;
55172;SDS011;41061;52.822;6.860;2023-02-18T05:08:54;59.60;;;29.27;;
55172;SDS011;41061;52.822;6.860;2023-02-18T05:11:20;60.40;;;27.55;;
55172;SDS011;41061;52.822;6.860;2023-02-18T05:13:46;63.05;;;29.30;;
55172;SDS011;41061;52.822;6.860;2023-02-18T05:16:12;64.38;;;29.48;;
55172;SDS011;41061;52.822;6.860;2023-02-18T05:18:39;64.75;;;28.23;;
55172;SDS011;41061;52.822;6.860;2023-02-18T05:21:05;58.42;;;27.83;;
55172;SDS011;41061;52.822;6.860;2023-02-18T05:23:31;58.25;;;27.88;;
55172;SDS011;41061;52.822;6.860;2023-02-18T05:25:57;64.65;;;27.98;;
55172;SDS011;41061;52.822;6.860;2023-02-18T05:28:23;60.88;;;27.73;;
55172;SDS011;41061;52.822;6.860;2023-02-18T05:30:50;58.95;;;27.95;;
55172;SDS011;41061;52.822;6.860;2023-02-18T05:33:16;62.10;;;25.58;;
55172;SDS011;41061;52.822;6.860;2023-02-18T05:35:42;65.78;;;25.73;;
55172;SDS011;41061;52.822;6.860;2023-02-18T05:38:08;63.28;;;24.92;;
55172;SDS011;41061;52.822;6.860;2023-02-18T05:40:34;63.45;;;24.58;;
55172;SDS011;41061;52.822;6.860;2023-02-18T05:43:00;67.85;;;25.55;;
55172;SDS011;41061;52.822;6.860;2023-02-18T05:45:26;65.90;;;24.95;;
55172;SDS011;41061;52.822;6.860;2023-02-18T05:47:52;65.22;;;24.85;;
55172;SDS011;41061;52.822;6.860;2023-02-18T05:50:18;52.83;;;21.55;;
55172;SDS011;41061;52.822;6.860;2023-02-18T05:52:45;56.25;;;23.38;;
55172;SDS011;41061;52.822;6.860;2023-02-18T05:55:11;60.10;;;22.77;;
55172;SDS011;41061;52.822;6.860;2023-02-18T05:57:37;51.45;;;19.80;;
55172;SDS011;41061;52.822;6.860;2023-02-18T06:00:03;52.70;;;20.15;;
55172;SDS011;41061;52.822;6.860;2023-02-18T06:02:30;49.42;;;18.75;;
55172;SDS011;41061;52.822;6.860;2023-02-18T06:04:56;44.75;;;19.45;;
55172;SDS011;41061;52.822;6.860;2023-02-18T06:07:22;40.60;;;16.63;;
55172;SDS011;41061;52.822;6.860;2023-02-18T06:09:48;50.65;;;17.42;;
55172;SDS011;41061;52.822;6.860;2023-02-18T06:12:14;43.75;;;17.50;;
55172;SDS011;41061;52.822;6.860;2023-02-18T06:14:40;41.17;;;16.70;;
55172;SDS011;41061;52.822;6.860;2023-02-18T06:17:16;36.05;;;15.55;;
55172;SDS011;41061;52.822;6.860;2023-02-18T06:22:08;36.38;;;15.32;;
55172;SDS011;41061;52.822;6.860;2023-02-18T06:24:34;36.03;;;15.10;;
55172;SDS011;41061;52.822;6.860;2023-02-18T06:27:01;37.17;;;15.60;;
55172;SDS011;41061;52.822;6.860;2023-02-18T06:29:27;36.60;;;15.38;;
55172;SDS011;41061;52.822;6.860;2023-02-18T06:31:55;35.05;;;13.88;;
55172;SDS011;41061;52.822;6.860;2023-02-18T06:34:21;33.28;;;14.02;;
55172;SDS011;41061;52.822;6.860;2023-02-18T06:36:47;28.38;;;13.07;;
55172;SDS011;41061;52.822;6.860;2023-02-18T06:39:13;27.48;;;12.77;;
55172;SDS011;41061;52.822;6.860;2023-02-18T06:41:39;29.52;;;11.90;;
55172;SDS011;41061;52.822;6.860;2023-02-18T06:44:05;25.35;;;11.57;;
55172;SDS011;41061;52.822;6.860;2023-02-18T06:46:31;25.58;;;10.55;;
55172;SDS011;41061;52.822;6.860;2023-02-18T06:48:58;16.08;;;9.00;;
55172;SDS011;41061;52.822;6.860;2023-02-18T06:51:24;17.67;;;8.68;;
55172;SDS011;41061;52.822;6.860;2023-02-18T06:53:50;13.73;;;6.95;;
55172;SDS011;41061;52.822;6.860;2023-02-18T06:56:16;11.25;;;6.00;;
55172;SDS011;41061;52.822;6.860;2023-02-18T06:58:42;11.13;;;6.15;;
55172;SDS011;41061;52.822;6.860;2023-02-18T07:01:08;9.32;;;5.07;;
55172;SDS011;41061;52.822;6.860;2023-02-18T07:03:35;6.43;;;4.60;;
55172;SDS011;41061;52.822;6.860;2023-02-18T07:06:01;9.02;;;5.25;;
55172;SDS011;41061;52.822;6.860;2023-02-18T07:08:27;7.70;;;4.60;;
55172;SDS011;41061;52.822;6.860;2023-02-18T07:10:55;7.25;;;4.13;;
55172;SDS011;41061;52.822;6.860;2023-02-18T07:13:21;5.93;;;4.25;;
55172;SDS011;41061;52.822;6.860;2023-02-18T07:15:47;7.90;;;5.10;;
55172;SDS011;41061;52.822;6.860;2023-02-18T07:18:13;9.98;;;5.57;;
55172;SDS011;41061;52.822;6.860;2023-02-18T07:20:39;11.77;;;6.05;;
55172;SDS011;41061;52.822;6.860;2023-02-18T07:23:05;10.40;;;6.82;;
55172;SDS011;41061;52.822;6.860;2023-02-18T07:25:31;15.70;;;7.22;;
55172;SDS011;41061;52.822;6.860;2023-02-18T07:27:57;10.70;;;7.70;;
55172;SDS011;41061;52.822;6.860;2023-02-18T07:30:23;10.98;;;7.72;;
55172;SDS011;41061;52.822;6.860;2023-02-18T07:32:49;12.68;;;8.05;;
55172;SDS011;41061;52.822;6.860;2023-02-18T07:35:15;15.40;;;9.52;;
55172;SDS011;41061;52.822;6.860;2023-02-18T07:37:45;16.85;;;9.50;;
55172;SDS011;41061;52.822;6.860;2023-02-18T07:40:13;16.67;;;10.15;;
55172;SDS011;41061;52.822;6.860;2023-02-18T07:42:39;17.05;;;10.07;;
55172;SDS011;41061;52.822;6.860;2023-02-18T07:45:05;21.02;;;11.40;;
55172;SDS011;41061;52.822;6.860;2023-02-18T07:47:31;20.50;;;11.18;;
55172;SDS011;41061;52.822;6.860;2023-02-18T07:49:57;21.05;;;10.43;;
55172;SDS011;41061;52.822;6.860;2023-02-18T07:52:23;14.48;;;9.48;;
55172;SDS011;41061;52.822;6.860;2023-02-18T07:54:49;22.83;;;11.63;;
55172;SDS011;41061;52.822;6.860;2023-02-18T07:57:15;16.98;;;10.40;;
55172;SDS011;41061;52.822;6.860;2023-02-18T07:59:41;12.25;;;6.57;;
55172;SDS011;41061;52.822;6.860;2023-02-18T08:02:11;23.52;;;9.82;;
55172;SDS011;41061;52.822;6.860;2023-02-18T08:04:40;12.90;;;8.13;;
55172;SDS011;41061;52.822;6.860;2023-02-18T08:07:06;14.77;;;7.47;;
55172;SDS011;41061;52.822;6.860;2023-02-18T08:09:32;17.75;;;6.95;;
55172;SDS011;41061;52.822;6.860;2023-02-18T08:11:58;15.75;;;8.10;;
55172;SDS011;41061;52.822;6.860;2023-02-18T08:14:24;16.55;;;7.28;;
55172;SDS011;41061;52.822;6.860;2023-02-18T08:16:50;14.38;;;6.25;;
55172;SDS011;41061;52.822;6.860;2023-02-18T08:19:17;9.00;;;5.43;;
55172;SDS011;41061;52.822;6.860;2023-02-18T08:21:43;10.93;;;5.75;;
55172;SDS011;41061;52.822;6.860;2023-02-18T08:24:10;12.43;;;5.32;;
55172;SDS011;41061;52.822;6.860;2023-02-18T08:26:36;9.05;;;5.28;;
55172;SDS011;41061;52.822;6.860;2023-02-18T08:29:02;13.13;;;5.65;;
55172;SDS011;41061;52.822;6.860;2023-02-18T08:31:29;11.60;;;5.85;;
55172;SDS011;41061;52.822;6.860;2023-02-18T08:33:56;12.80;;;6.50;;
55172;SDS011;41061;52.822;6.860;2023-02-18T08:36:23;10.90;;;5.30;;
55172;SDS011;41061;52.822;6.860;2023-02-18T08:38:49;13.35;;;4.93;;
55172;SDS011;41061;52.822;6.860;2023-02-18T08:41:15;11.55;;;4.90;;
55172;SDS011;41061;52.822;6.860;2023-02-18T08:43:42;10.60;;;4.75;;
55172;SDS011;41061;52.822;6.860;2023-02-18T08:46:09;11.05;;;4.28;;
55172;SDS011;41061;52.822;6.860;2023-02-18T08:48:35;12.45;;;4.60;;
55172;SDS011;41061;52.822;6.860;2023-02-18T08:51:18;10.75;;;4.15;;
55172;SDS011;41061;52.822;6.860;2023-02-18T08:53:44;14.73;;;4.70;;
55172;SDS011;41061;52.822;6.860;2023-02-18T08:56:11;11.00;;;4.45;;
55172;SDS011;41061;52.822;6.860;2023-02-18T08:58:38;9.73;;;4.07;;
55172;SDS011;41061;52.822;6.860;2023-02-18T09:01:05;11.10;;;4.75;;
55172;SDS011;41061;52.822;6.860;2023-02-18T09:03:32;8.18;;;3.75;;
55172;SDS011;41061;52.822;6.860;2023-02-18T09:05:58;11.82;;;4.68;;
55172;SDS011;41061;52.822;6.860;2023-02-18T09:08:25;12.95;;;4.95;;
55172;SDS011;41061;52.822;6.860;2023-02-18T09:10:58;11.95;;;4.53;;
55172;SDS011;41061;52.822;6.860;2023-02-18T09:13:24;11.32;;;3.90;;
55172;SDS011;41061;52.822;6.860;2023-02-18T09:16:00;9.23;;;3.88;;
55172;SDS011;41061;52.822;6.860;2023-02-18T09:18:27;11.90;;;3.22;;
55172;SDS011;41061;52.822;6.860;2023-02-18T09:20:57;8.10;;;3.55;;
55172;SDS011;41061;52.822;6.860;2023-02-18T09:23:24;10.70;;;3.53;;
55172;SDS011;41061;52.822;6.860;2023-02-18T09:25:51;8.73;;;4.10;;
55172;SDS011;41061;52.822;6.860;2023-02-18T09:28:17;6.72;;;2.63;;
55172;SDS011;41061;52.822;6.860;2023-02-18T09:30:43;11.57;;;2.97;;
55172;SDS011;41061;52.822;6.860;2023-02-18T09:33:09;7.35;;;3.38;;
55172;SDS011;41061;52.822;6.860;2023-02-18T09:35:41;11.15;;;2.97;;
55172;SDS011;41061;52.822;6.860;2023-02-18T09:38:08;9.20;;;2.60;;
55172;SDS011;41061;52.822;6.860;2023-02-18T09:40:36;9.10;;;2.67;;
55172;SDS011;41061;52.822;6.860;2023-02-18T09:43:02;4.53;;;2.03;;
55172;SDS011;41061;52.822;6.860;2023-02-18T09:45:29;8.25;;;2.67;;
55172;SDS011;41061;52.822;6.860;2023-02-18T09:47:55;7.72;;;2.30;;
55172;SDS011;41061;52.822;6.860;2023-02-18T09:50:23;7.80;;;2.65;;
55172;SDS011;41061;52.822;6.860;2023-02-18T09:52:49;5.93;;;2.55;;
55172;SDS011;41061;52.822;6.860;2023-02-18T09:55:17;9.82;;;2.60;;
55172;SDS011;41061;52.822;6.860;2023-02-18T09:57:44;7.38;;;3.58;;
55172;SDS011;41061;52.822;6.860;2023-02-18T10:00:13;8.98;;;3.03;;
55172;SDS011;41061;52.822;6.860;2023-02-18T10:03:02;13.77;;;3.08;;
55172;SDS011;41061;52.822;6.860;2023-02-18T10:05:26;8.35;;;2.70;;
55172;SDS011;41061;52.822;6.860;2023-02-18T10:07:55;8.85;;;3.10;;
55172;SDS011;41061;52.822;6.860;2023-02-18T10:10:26;9.82;;;3.15;;
55172;SDS011;41061;52.822;6.860;2023-02-18T10:12:55;9.68;;;2.42;;
55172;SDS011;41061;52.822;6.860;2023-02-18T10:15:28;8.18;;;2.00;;
55172;SDS011;41061;52.822;6.860;2023-02-18T10:17:55;11.90;;;2.53;;
55172;SDS011;41061;52.822;6.860;2023-02-18T10:20:23;8.10;;;2.10;;
55172;SDS011;41061;52.822;6.860;2023-02-18T10:22:51;8.80;;;2.00;;
55172;SDS011;41061;52.822;6.860;2023-02-18T10:25:19;12.07;;;2.15;;
55172;SDS011;41061;52.822;6.860;2023-02-18T10:27:48;10.25;;;2.20;;
55172;SDS011;41061;52.822;6.860;2023-02-18T10:30:32;10.20;;;2.38;;
55172;SDS011;41061;52.822;6.860;2023-02-18T10:33:21;14.05;;;2.90;;
55172;SDS011;41061;52.822;6.860;2023-02-18T10:35:53;10.07;;;2.80;;
55172;SDS011;41061;52.822;6.860;2023-02-18T10:46:17;10.07;;;2.00;;
55172;SDS011;41061;52.822;6.860;2023-02-18T10:51:22;12.40;;;2.90;;
55172;SDS011;41061;52.822;6.860;2023-02-18T10:53:50;15.00;;;3.78;;
55172;SDS011;41061;52.822;6.860;2023-02-18T10:56:36;13.60;;;2.20;;
55172;SDS011;41061;52.822;6.860;2023-02-18T10:59:10;15.13;;;3.13;;
55172;SDS011;41061;52.822;6.860;2023-02-18T11:01:37;13.40;;;1.98;;
55172;SDS011;41061;52.822;6.860;2023-02-18T11:04:05;15.27;;;2.88;;
55172;SDS011;41061;52.822;6.860;2023-02-18T11:06:42;16.95;;;3.17;;
55172;SDS011;41061;52.822;6.860;2023-02-18T11:11:58;17.13;;;3.10;;
55172;SDS011;41061;52.822;6.860;2023-02-18T11:14:36;13.35;;;2.55;;
55172;SDS011;41061;52.822;6.860;2023-02-18T11:17:09;13.35;;;2.25;;
55172;SDS011;41061;52.822;6.860;2023-02-18T11:19:40;13.60;;;2.90;;
55172;SDS011;41061;52.822;6.860;2023-02-18T11:24:55;15.63;;;2.25;;
55172;SDS011;41061;52.822;6.860;2023-02-18T11:27:34;22.17;;;2.92;;
55172;SDS011;41061;52.822;6.860;2023-02-18T11:30:05;20.98;;;3.05;;
55172;SDS011;41061;52.822;6.860;2023-02-18T11:32:33;12.48;;;2.33;;
55172;SDS011;41061;52.822;6.860;2023-02-18T11:35:00;17.00;;;3.33;;
55172;SDS011;41061;52.822;6.860;2023-02-18T11:37:26;14.63;;;3.05;;
55172;SDS011;41061;52.822;6.860;2023-02-18T11:39:53;15.00;;;3.00;;
55172;SDS011;41061;52.822;6.860;2023-02-18T11:42:20;13.35;;;2.70;;
55172;SDS011;41061;52.822;6.860;2023-02-18T11:44:49;13.63;;;3.40;;
55172;SDS011;41061;52.822;6.860;2023-02-18T11:49:43;16.73;;;2.83;;
55172;SDS011;41061;52.822;6.860;2023-02-18T11:52:26;21.90;;;3.15;;
55172;SDS011;41061;52.822;6.860;2023-02-18T11:55:00;14.30;;;2.63;;
55172;SDS011;41061;52.822;6.860;2023-02-18T11:57:27;17.80;;;2.97;;
55172;SDS011;41061;52.822;6.860;2023-02-18T11:59:53;14.73;;;3.28;;
55172;SDS011;41061;52.822;6.860;2023-02-18T12:02:31;14.70;;;2.53;;
55172;SDS011;41061;52.822;6.860;2023-02-18T12:07:29;12.60;;;2.42;;
55172;SDS011;41061;52.822;6.860;2023-02-18T12:10:20;12.60;;;2.80;;
55172;SDS011;41061;52.822;6.860;2023-02-18T12:12:49;15.88;;;2.60;;
55172;SDS011;41061;52.822;6.860;2023-02-18T12:15:20;11.15;;;3.35;;
55172;SDS011;41061;52.822;6.860;2023-02-18T12:23:05;12.73;;;2.20;;
55172;SDS011;41061;52.822;6.860;2023-02-18T12:25:47;14.40;;;2.25;;
55172;SDS011;41061;52.822;6.860;2023-02-18T12:48:55;15.82;;;3.13;;
55172;SDS011;41061;52.822;6.860;2023-02-18T12:51:27;10.52;;;2.35;;
55172;SDS011;41061;52.822;6.860;2023-02-18T12:56:49;12.25;;;2.30;;
55172;SDS011;41061;52.822;6.860;2023-02-18T13:04:43;10.38;;;3.28;;
55172;SDS011;41061;52.822;6.860;2023-02-18T13:09:57;10.40;;;2.05;;
55172;SDS011;41061;52.822;6.860;2023-02-18T13:17:28;9.88;;;1.70;;
55172;SDS011;41061;52.822;6.860;2023-02-18T13:20:32;8.98;;;2.30;;
55172;SDS011;41061;52.822;6.860;2023-02-18T13:22:50;9.73;;;2.08;;
55172;SDS011;41061;52.822;6.860;2023-02-18T13:25:17;12.98;;;2.75;;
55172;SDS011;41061;52.822;6.860;2023-02-18T13:35:22;9.82;;;2.65;;
55172;SDS011;41061;52.822;6.860;2023-02-18T13:40:20;12.57;;;1.80;;
55172;SDS011;41061;52.822;6.860;2023-02-18T13:42:50;9.57;;;1.83;;
55172;SDS011;41061;52.822;6.860;2023-02-18T13:45:27;12.13;;;1.95;;
55172;SDS011;41061;52.822;6.860;2023-02-18T13:47:53;15.98;;;2.47;;
55172;SDS011;41061;52.822;6.860;2023-02-18T13:58:01;11.60;;;3.58;;
55172;SDS011;41061;52.822;6.860;2023-02-18T14:00:34;14.48;;;4.05;;
55172;SDS011;41061;52.822;6.860;2023-02-18T14:03:18;14.45;;;3.58;;
55172;SDS011;41061;52.822;6.860;2023-02-18T14:05:44;15.77;;;2.65;;
55172;SDS011;41061;52.822;6.860;2023-02-18T14:08:14;12.90;;;2.58;;
55172;SDS011;41061;52.822;6.860;2023-02-18T14:13:54;14.65;;;3.17;;
55172;SDS011;41061;52.822;6.860;2023-02-18T14:16:22;12.60;;;2.20;;
55172;SDS011;41061;52.822;6.860;2023-02-18T14:18:56;9.48;;;1.80;;
55172;SDS011;41061;52.822;6.860;2023-02-18T14:21:39;11.35;;;2.42;;
55172;SDS011;41061;52.822;6.860;2023-02-18T14:24:06;12.38;;;2.38;;
55172;SDS011;41061;52.822;6.860;2023-02-18T14:26:35;10.30;;;1.98;;
55172;SDS011;41061;52.822;6.860;2023-02-18T14:29:05;15.35;;;3.25;;
55172;SDS011;41061;52.822;6.860;2023-02-18T14:31:34;15.98;;;2.47;;
55172;SDS011;41061;52.822;6.860;2023-02-18T14:36:41;10.25;;;2.45;;
55172;SDS011;41061;52.822;6.860;2023-02-18T14:51:57;15.20;;;2.85;;
55172;SDS011;41061;52.822;6.860;2023-02-18T14:54:24;13.23;;;2.20;;
55172;SDS011;41061;52.822;6.860;2023-02-18T14:56:55;13.85;;;2.53;;
55172;SDS011;41061;52.822;6.860;2023-02-18T14:59:23;12.20;;;1.92;;
55172;SDS011;41061;52.822;6.860;2023-02-18T15:01:52;9.45;;;2.22;;
55172;SDS011;41061;52.822;6.860;2023-02-18T15:04:18;9.98;;;2.38;;
55172;SDS011;41061;52.822;6.860;2023-02-18T15:06:45;12.55;;;2.92;;
55172;SDS011;41061;52.822;6.860;2023-02-18T15:09:22;17.83;;;2.65;;
55172;SDS011;41061;52.822;6.860;2023-02-18T15:11:49;10.85;;;2.55;;
55172;SDS011;41061;52.822;6.860;2023-02-18T15:14:24;8.45;;;2.10;;
55172;SDS011;41061;52.822;6.860;2023-02-18T15:16:51;14.18;;;2.58;;
55172;SDS011;41061;52.822;6.860;2023-02-18T15:19:18;13.48;;;2.55;;
55172;SDS011;41061;52.822;6.860;2023-02-18T15:21:46;10.52;;;2.10;;
55172;SDS011;41061;52.822;6.860;2023-02-18T15:26:47;13.23;;;2.40;;
55172;SDS011;41061;52.822;6.860;2023-02-18T15:29:19;14.95;;;2.42;;
55172;SDS011;41061;52.822;6.860;2023-02-18T15:31:46;15.52;;;2.60;;
55172;SDS011;41061;52.822;6.860;2023-02-18T15:34:35;15.75;;;2.70;;
55172;SDS011;41061;52.822;6.860;2023-02-18T15:39:25;15.20;;;2.25;;
55172;SDS011;41061;52.822;6.860;2023-02-18T15:41:55;18.25;;;2.67;;
55172;SDS011;41061;52.822;6.860;2023-02-18T15:44:24;12.10;;;2.58;;
55172;SDS011;41061;52.822;6.860;2023-02-18T15:46:51;13.52;;;3.33;;
55172;SDS011;41061;52.822;6.860;2023-02-18T15:49:21;12.02;;;2.47;;
55172;SDS011;41061;52.822;6.860;2023-02-18T15:51:49;15.88;;;2.58;;
55172;SDS011;41061;52.822;6.860;2023-02-18T15:54:17;14.45;;;2.13;;
55172;SDS011;41061;52.822;6.860;2023-02-18T15:56:45;15.45;;;2.80;;
55172;SDS011;41061;52.822;6.860;2023-02-18T15:59:25;18.88;;;5.10;;
55172;SDS011;41061;52.822;6.860;2023-02-18T16:01:52;17.20;;;4.78;;
55172;SDS011;41061;52.822;6.860;2023-02-18T16:04:19;31.08;;;11.40;;
55172;SDS011;41061;52.822;6.860;2023-02-18T16:06:48;18.02;;;5.28;;
55172;SDS011;41061;52.822;6.860;2023-02-18T16:09:31;12.63;;;2.92;;
55172;SDS011;41061;52.822;6.860;2023-02-18T16:11:58;11.80;;;2.20;;
55172;SDS011;41061;52.822;6.860;2023-02-18T16:14:31;14.02;;;3.28;;
55172;SDS011;41061;52.822;6.860;2023-02-18T16:19:24;14.77;;;3.08;;
55172;SDS011;41061;52.822;6.860;2023-02-18T16:21:50;13.27;;;2.30;;
55172;SDS011;41061;52.822;6.860;2023-02-18T16:24:23;17.60;;;2.50;;
55172;SDS011;41061;52.822;6.860;2023-02-18T16:26:50;17.92;;;4.53;;
55172;SDS011;41061;52.822;6.860;2023-02-18T16:29:25;13.40;;;2.30;;
55172;SDS011;41061;52.822;6.860;2023-02-18T16:31:51;17.23;;;3.88;;
55172;SDS011;41061;52.822;6.860;2023-02-18T16:34:17;17.80;;;3.25;;
55172;SDS011;41061;52.822;6.860;2023-02-18T16:36:44;14.30;;;2.22;;
55172;SDS011;41061;52.822;6.860;2023-02-18T16:39:29;17.05;;;3.47;;
55172;SDS011;41061;52.822;6.860;2023-02-18T16:41:57;15.90;;;2.58;;
55172;SDS011;41061;52.822;6.860;2023-02-18T16:44:23;13.25;;;2.70;;
55172;SDS011;41061;52.822;6.860;2023-02-18T16:46:50;14.15;;;2.25;;
55172;SDS011;41061;52.822;6.860;2023-02-18T16:49:16;10.73;;;2.25;;
55172;SDS011;41061;52.822;6.860;2023-02-18T16:51:43;13.30;;;3.35;;
55172;SDS011;41061;52.822;6.860;2023-02-18T16:54:09;23.40;;;6.40;;
55172;SDS011;41061;52.822;6.860;2023-02-18T16:56:36;23.50;;;4.35;;
55172;SDS011;41061;52.822;6.860;2023-02-18T16:59:02;20.25;;;2.88;;
55172;SDS011;41061;52.822;6.860;2023-02-18T17:01:29;20.52;;;3.58;;
55172;SDS011;41061;52.822;6.860;2023-02-18T17:04:00;14.57;;;2.35;;
55172;SDS011;41061;52.822;6.860;2023-02-18T17:06:27;16.38;;;1.90;;
55172;SDS011;41061;52.822;6.860;2023-02-18T17:08:53;11.23;;;2.45;;